createdAt,value
2018-12-26T00:02:14.136Z,4.45
2018-12-26T00:04:45.602Z,4.50
2018-12-26T00:10:14.387Z,4.49
2018-12-26T00:12:43.954Z,4.49
2018-12-26T00:15:13.515Z,4.51
2018-12-26T00:17:43.076Z,4.53
2018-12-26T00:20:12.623Z,4.50
2018-12-26T00:22:42.169Z,4.51
2018-12-26T00:25:11.801Z,4.54
2018-12-26T00:28:02.648Z,4.51
2018-12-26T00:30:51.590Z,4.54
2018-12-26T00:33:21.152Z,4.51
2018-12-26T00:35:50.700Z,4.48
2018-12-26T00:41:14.502Z,4.46
2018-12-26T00:43:44.399Z,4.44
2018-12-26T00:46:13.941Z,4.45
2018-12-26T00:48:43.528Z,4.43
2018-12-26T00:51:13.064Z,4.48
2018-12-26T00:53:42.640Z,4.47
2018-12-26T00:56:12.179Z,4.52
2018-12-26T00:58:42.050Z,4.55
2018-12-26T01:01:11.820Z,4.50
2018-12-26T01:03:41.760Z,4.47
2018-12-26T01:06:11.280Z,4.57
2018-12-26T01:12:36.361Z,4.56
2018-12-26T01:15:46.144Z,4.59
2018-12-26T01:18:35.087Z,4.67
2018-12-26T01:21:04.731Z,4.69
2018-12-26T01:23:34.308Z,4.64
2018-12-26T01:26:03.865Z,4.73
2018-12-26T01:28:33.430Z,4.69
2018-12-26T01:31:02.977Z,4.72
2018-12-26T01:33:32.538Z,4.70
2018-12-26T01:36:02.093Z,4.68
2018-12-26T01:38:31.710Z,4.67
2018-12-26T01:41:01.343Z,4.61
2018-12-26T01:43:31.213Z,4.62
2018-12-26T01:46:00.795Z,4.59
2018-12-26T01:48:30.741Z,4.64
2018-12-26T01:51:00.768Z,4.61
2018-12-26T01:53:30.389Z,4.57
2018-12-26T01:55:59.956Z,4.53
2018-12-26T01:58:29.539Z,4.52
2018-12-26T02:00:59.103Z,4.51
2018-12-26T02:03:29.000Z,4.54
2018-12-26T02:05:58.556Z,4.53
2018-12-26T02:08:28.330Z,4.55
2018-12-26T02:10:57.955Z,4.53
2018-12-26T02:13:29.175Z,4.53
2018-12-26T02:15:58.716Z,4.55
2018-12-26T02:18:30.228Z,4.53
2018-12-26T02:20:59.774Z,4.48
2018-12-26T02:23:29.342Z,4.48
2018-12-26T02:25:59.000Z,4.45
2018-12-26T02:28:28.881Z,4.47
2018-12-26T02:30:58.417Z,4.49
2018-12-26T02:33:47.355Z,4.48
2018-12-26T02:36:36.293Z,4.44
2018-12-26T02:39:25.192Z,4.47
2018-12-26T02:42:14.117Z,4.47
2018-12-26T02:44:44.022Z,4.52
2018-12-26T02:47:32.686Z,4.50
2018-12-26T02:50:21.636Z,4.50
2018-12-26T02:52:51.285Z,4.49
2018-12-26T02:55:21.170Z,4.49
2018-12-26T02:57:50.708Z,4.49
2018-12-26T03:00:39.660Z,4.49
2018-12-26T03:03:28.621Z,4.47
2018-12-26T03:05:58.205Z,4.48
2018-12-26T03:08:27.764Z,4.45
2018-12-26T03:10:57.318Z,4.47
2018-12-26T03:13:27.215Z,4.48
2018-12-26T03:15:56.809Z,4.41
2018-12-26T03:18:27.979Z,4.39
2018-12-26T03:23:52.485Z,4.41
2018-12-26T03:26:22.027Z,4.37
2018-12-26T03:28:51.618Z,4.38
2018-12-26T03:31:40.544Z,4.39
2018-12-26T03:34:10.116Z,4.39
2018-12-26T03:39:28.111Z,4.40
2018-12-26T03:41:58.159Z,4.43
2018-12-26T03:44:27.709Z,4.40
2018-12-26T03:46:57.273Z,4.38
2018-12-26T03:49:46.216Z,4.38
2018-12-26T03:52:15.751Z,4.38
2018-12-26T03:54:45.327Z,4.43
2018-12-26T03:57:14.945Z,4.40
2018-12-26T03:59:44.782Z,4.37
2018-12-26T04:02:14.336Z,4.35
2018-12-26T04:04:43.896Z,4.33
2018-12-26T04:07:13.445Z,4.29
2018-12-26T04:09:43.009Z,4.30
2018-12-26T04:12:12.582Z,4.32
2018-12-26T04:14:42.124Z,4.32
2018-12-26T04:17:50.606Z,4.34
2018-12-26T04:21:00.220Z,4.38
2018-12-26T04:24:09.832Z,4.32
2018-12-26T04:26:39.373Z,4.36
2018-12-26T04:29:08.931Z,4.35
2018-12-26T04:31:38.473Z,4.38
2018-12-26T04:34:08.031Z,4.34
2018-12-26T04:36:37.584Z,4.32
2018-12-26T04:39:07.446Z,4.29
2018-12-26T04:41:36.999Z,4.28
2018-12-26T04:44:25.937Z,4.30
2018-12-26T04:46:55.492Z,4.25
2018-12-26T04:49:25.442Z,4.23
2018-12-26T04:51:54.985Z,4.20
2018-12-26T04:54:24.632Z,4.18
2018-12-26T04:56:54.458Z,4.20
2018-12-26T04:59:24.014Z,4.17
2018-12-26T05:01:53.575Z,4.17
2018-12-26T05:04:23.138Z,4.16
2018-12-26T05:06:53.601Z,4.19
2018-12-26T05:09:42.800Z,4.17
2018-12-26T05:12:12.346Z,4.17
2018-12-26T05:14:41.915Z,4.15
2018-12-26T05:17:11.793Z,4.15
2018-12-26T05:19:41.422Z,4.16
2018-12-26T05:22:10.976Z,4.17
2018-12-26T05:25:00.195Z,4.15
2018-12-26T05:27:34.382Z,4.16
2018-12-26T05:30:22.026Z,4.20
2018-12-26T05:32:53.469Z,4.18
2018-12-26T05:35:23.032Z,4.17
2018-12-26T05:38:11.933Z,4.13
2018-12-26T05:41:00.895Z,4.13
2018-12-26T05:43:32.063Z,4.15
2018-12-26T05:46:21.305Z,4.15
2018-12-26T05:49:10.490Z,4.15
2018-12-26T05:51:40.061Z,4.16
2018-12-26T05:54:09.896Z,4.12
2018-12-26T05:56:39.828Z,4.15
2018-12-26T05:59:09.618Z,4.09
2018-12-26T06:01:39.180Z,4.06
2018-12-26T06:04:10.351Z,4.05
2018-12-26T06:06:39.916Z,4.08
2018-12-26T06:09:09.533Z,4.00
2018-12-26T06:11:39.095Z,3.93
2018-12-26T06:14:08.906Z,3.92
2018-12-26T06:16:40.102Z,3.94
2018-12-26T06:19:09.655Z,3.96
2018-12-26T06:21:39.213Z,3.88
2018-12-26T06:24:10.385Z,3.92
2018-12-26T06:26:59.675Z,3.93
2018-12-26T06:29:29.630Z,3.94
2018-12-26T06:32:18.575Z,3.92
2018-12-26T06:34:48.493Z,3.92
2018-12-26T06:40:12.291Z,3.90
2018-12-26T06:43:01.192Z,3.87
2018-12-26T06:45:50.124Z,3.79
2018-12-26T06:48:19.681Z,3.76
2018-12-26T06:50:49.238Z,3.77
2018-12-26T06:53:38.160Z,3.72
2018-12-26T06:56:08.075Z,3.76
2018-12-26T06:58:37.649Z,3.70
2018-12-26T07:01:07.215Z,3.67
2018-12-26T07:06:25.197Z,3.64
2018-12-26T07:08:56.360Z,3.60
2018-12-26T07:14:20.245Z,3.52
2018-12-26T07:16:51.448Z,3.51
2018-12-26T07:19:20.995Z,3.54
2018-12-26T07:24:44.910Z,3.50
2018-12-26T07:27:14.466Z,3.47
2018-12-26T07:29:44.013Z,3.48
2018-12-26T07:32:13.993Z,3.47
2018-12-26T07:34:43.516Z,3.46
2018-12-26T07:37:13.088Z,3.47
2018-12-26T07:39:42.678Z,3.45
2018-12-26T07:42:12.282Z,3.44
2018-12-26T07:44:41.830Z,3.43
2018-12-26T07:47:11.389Z,3.42
2018-12-26T07:49:42.599Z,3.41
2018-12-26T07:52:12.449Z,3.42
2018-12-26T07:55:01.384Z,3.39
2018-12-26T07:57:30.935Z,3.38
2018-12-26T08:00:19.607Z,3.34
2018-12-26T08:02:49.166Z,3.35
2018-12-26T08:08:07.173Z,3.37
2018-12-26T08:10:56.071Z,3.37
2018-12-26T08:13:25.903Z,3.37
2018-12-26T08:15:55.736Z,3.32
2018-12-26T08:18:25.279Z,3.31
2018-12-26T08:20:54.847Z,3.32
2018-12-26T08:26:12.883Z,3.34
2018-12-26T08:28:42.414Z,3.38
2018-12-26T08:31:12.350Z,3.37
2018-12-26T08:33:41.904Z,3.34
2018-12-26T08:36:11.539Z,3.29
2018-12-26T08:38:41.162Z,3.28
2018-12-26T08:41:10.726Z,3.26
2018-12-26T08:43:40.593Z,3.29
2018-12-26T08:46:10.149Z,3.26
2018-12-26T08:48:39.705Z,3.30
2018-12-26T08:51:09.262Z,3.30
2018-12-26T08:53:38.833Z,3.25
2018-12-26T08:56:08.375Z,3.29
2018-12-26T08:58:38.254Z,3.26
2018-12-26T09:01:07.861Z,3.31
2018-12-26T09:06:32.413Z,3.37
2018-12-26T09:09:01.949Z,3.68
2018-12-26T09:11:51.228Z,3.88
2018-12-26T09:14:20.778Z,4.15
2018-12-26T09:16:50.357Z,4.11
2018-12-26T09:19:21.823Z,3.80
2018-12-26T09:21:51.808Z,3.54
2018-12-26T09:24:21.707Z,3.46
2018-12-26T09:26:51.239Z,3.39
2018-12-26T09:29:21.051Z,3.33
2018-12-26T09:31:50.639Z,3.36
2018-12-26T09:34:39.701Z,3.37
2018-12-26T09:37:09.258Z,3.29
2018-12-26T09:39:38.798Z,3.31
2018-12-26T09:42:08.363Z,3.34
2018-12-26T09:44:37.900Z,3.27
2018-12-26T09:47:07.462Z,3.27
2018-12-26T09:49:37.286Z,3.31
2018-12-26T09:52:06.841Z,3.36
2018-12-26T09:54:36.399Z,3.31
2018-12-26T09:57:05.938Z,3.30
2018-12-26T09:59:35.487Z,3.29
2018-12-26T10:02:05.051Z,3.29
2018-12-26T10:04:34.583Z,3.32
2018-12-26T10:07:04.139Z,3.31
2018-12-26T10:09:33.690Z,3.28
2018-12-26T10:12:03.246Z,3.25
2018-12-26T10:14:33.067Z,3.25
2018-12-26T10:17:02.617Z,3.28
2018-12-26T10:19:32.165Z,3.28
2018-12-26T10:22:01.766Z,3.26
2018-12-26T10:24:31.259Z,3.27
2018-12-26T10:27:00.829Z,3.33
2018-12-26T10:29:49.993Z,3.32
2018-12-26T10:32:38.932Z,3.29
2018-12-26T10:35:10.496Z,3.29
2018-12-26T10:37:41.144Z,3.41
2018-12-26T10:40:49.806Z,3.44
2018-12-26T10:43:38.513Z,3.43
2018-12-26T10:46:27.437Z,3.45
2018-12-26T10:48:57.282Z,3.48
2018-12-26T10:51:26.827Z,3.50
2018-12-26T10:53:56.377Z,3.52
2018-12-26T11:00:01.121Z,3.56
2018-12-26T11:02:30.724Z,3.55
2018-12-26T11:05:00.277Z,3.56
2018-12-26T11:07:29.838Z,3.55
2018-12-26T11:09:59.390Z,3.57
2018-12-26T11:12:28.989Z,3.55
2018-12-26T11:15:18.161Z,3.67
2018-12-26T11:18:27.778Z,3.72
2018-12-26T11:21:37.372Z,3.69
2018-12-26T11:27:01.728Z,3.68
2018-12-26T11:29:50.669Z,3.57
2018-12-26T11:32:39.867Z,3.64
2018-12-26T11:35:11.059Z,3.56
2018-12-26T11:38:20.649Z,3.58
2018-12-26T11:40:50.492Z,3.64
2018-12-26T11:43:20.140Z,3.71
2018-12-26T11:48:38.406Z,3.79
2018-12-26T11:51:08.243Z,3.85
2018-12-26T11:53:37.798Z,3.82
2018-12-26T11:56:07.341Z,3.88
2018-12-26T12:01:31.201Z,3.91
2018-12-26T12:04:00.768Z,3.93
2018-12-26T12:06:30.561Z,3.90
2018-12-26T12:09:00.462Z,3.85
2018-12-26T12:11:49.354Z,3.82
2018-12-26T12:14:38.295Z,3.86
2018-12-26T12:17:26.967Z,3.84
2018-12-26T12:20:15.898Z,3.86
2018-12-26T12:23:04.849Z,3.92
2018-12-26T12:25:34.395Z,3.95
2018-12-26T12:30:57.899Z,3.96
2018-12-26T12:33:27.726Z,3.91
2018-12-26T12:38:45.759Z,3.97
2018-12-26T12:41:15.326Z,4.10
2018-12-26T12:44:04.260Z,4.06
2018-12-26T12:46:33.811Z,4.12
2018-12-26T12:49:03.371Z,4.07
2018-12-26T12:51:32.939Z,4.04
2018-12-26T12:54:04.499Z,4.02
2018-12-26T12:56:34.070Z,4.02
2018-12-26T12:59:23.023Z,4.05
2018-12-26T13:01:52.584Z,3.99
2018-12-26T13:04:22.167Z,3.98
2018-12-26T13:06:51.786Z,3.92
2018-12-26T13:09:21.707Z,3.93
2018-12-26T13:11:51.255Z,3.97
2018-12-26T13:14:20.815Z,3.88
2018-12-26T13:16:50.377Z,3.94
2018-12-26T13:19:19.945Z,3.89
2018-12-26T13:21:49.501Z,3.88
2018-12-26T13:24:19.174Z,3.79
2018-12-26T13:26:48.690Z,3.72
2018-12-26T13:29:18.258Z,3.71
2018-12-26T13:31:47.812Z,3.69
2018-12-26T13:34:36.762Z,3.66
2018-12-26T13:37:06.322Z,3.69
2018-12-26T13:39:35.889Z,3.63
2018-12-26T13:42:05.441Z,3.64
2018-12-26T13:44:35.329Z,3.63
2018-12-26T13:47:05.194Z,3.63
2018-12-26T13:49:34.749Z,3.65
2018-12-26T13:52:11.304Z,3.64
2018-12-26T13:54:40.880Z,3.66
2018-12-26T13:57:10.420Z,3.65
2018-12-26T13:59:39.972Z,3.68
2018-12-26T14:02:09.522Z,3.65
2018-12-26T14:04:39.150Z,3.65
2018-12-26T14:07:09.054Z,3.64
2018-12-26T14:09:38.616Z,3.64
2018-12-26T14:12:08.469Z,3.60
2018-12-26T14:14:38.026Z,3.63
2018-12-26T14:17:07.573Z,3.62
2018-12-26T14:19:37.130Z,3.61
2018-12-26T14:22:06.679Z,3.61
2018-12-26T14:24:36.508Z,3.63
2018-12-26T14:27:06.053Z,3.64
2018-12-26T14:29:55.002Z,3.60
2018-12-26T14:32:24.557Z,3.63
2018-12-26T14:37:48.966Z,3.63
2018-12-26T14:40:18.515Z,3.62
2018-12-26T14:42:48.449Z,3.63
2018-12-26T14:45:37.145Z,3.64
2018-12-26T14:48:06.960Z,3.65
2018-12-26T14:50:36.517Z,3.70
2018-12-26T14:53:06.071Z,3.73
2018-12-26T14:55:35.628Z,3.75
2018-12-26T14:58:05.175Z,3.76
2018-12-26T15:00:34.759Z,3.77
2018-12-26T15:03:04.332Z,3.80
2018-12-26T15:05:33.957Z,3.81
2018-12-26T15:08:03.533Z,3.80
2018-12-26T15:10:33.182Z,3.83
2018-12-26T15:13:02.721Z,3.88
2018-12-26T15:15:32.282Z,3.88
2018-12-26T15:18:03.511Z,3.90
2018-12-26T15:20:33.391Z,3.92
2018-12-26T15:23:03.064Z,3.94
2018-12-26T15:25:52.325Z,3.93
2018-12-26T15:28:21.892Z,3.98
2018-12-26T15:30:51.467Z,3.99
2018-12-26T15:33:21.371Z,4.00
2018-12-26T15:35:51.281Z,4.02
2018-12-26T15:38:20.851Z,4.04
2018-12-26T15:41:09.807Z,4.04
2018-12-26T15:43:39.415Z,4.07
2018-12-26T15:46:09.300Z,4.09
2018-12-26T15:48:38.845Z,4.11
2018-12-26T15:51:28.009Z,4.10
2018-12-26T15:53:57.818Z,4.16
2018-12-26T15:56:47.028Z,4.14
2018-12-26T15:59:35.972Z,4.18
2018-12-26T16:02:05.843Z,4.19
2018-12-26T16:04:35.408Z,4.20
2018-12-26T16:07:04.968Z,4.21
2018-12-26T16:09:34.553Z,4.23
2018-12-26T16:12:04.374Z,4.23
2018-12-26T16:14:34.290Z,4.23
2018-12-26T16:17:03.838Z,4.26
2018-12-26T16:19:52.538Z,4.29
2018-12-26T16:22:22.104Z,4.31
2018-12-26T16:24:51.685Z,4.33
2018-12-26T16:27:21.239Z,4.31
2018-12-26T16:29:51.107Z,4.33
2018-12-26T16:32:20.655Z,4.33
2018-12-26T16:34:50.216Z,4.33
2018-12-26T16:37:20.137Z,4.37
2018-12-26T16:39:49.691Z,4.39
2018-12-26T16:42:19.536Z,4.41
2018-12-26T16:44:49.347Z,4.40
2018-12-26T16:47:18.891Z,4.42
2018-12-26T16:50:47.914Z,4.42
2018-12-26T16:53:36.827Z,4.44
2018-12-26T16:56:25.736Z,4.44
2018-12-26T16:58:55.357Z,4.47
2018-12-26T17:01:25.300Z,4.47
2018-12-26T17:03:54.848Z,4.47
2018-12-26T17:06:24.441Z,4.49
2018-12-26T17:08:53.987Z,4.51
2018-12-26T17:11:23.546Z,4.56
2018-12-26T17:13:53.432Z,4.51
2018-12-26T17:16:22.990Z,4.49
2018-12-26T17:18:52.531Z,4.51
2018-12-26T17:21:22.088Z,4.51
2018-12-26T17:23:51.632Z,4.48
2018-12-26T17:26:21.224Z,4.56
2018-12-26T17:28:50.742Z,4.53
2018-12-26T17:31:20.309Z,4.52
2018-12-26T17:33:49.861Z,4.50
2018-12-26T17:36:19.415Z,4.53
2018-12-26T17:38:48.968Z,4.52
2018-12-26T17:41:37.930Z,4.50
2018-12-26T17:44:07.802Z,4.54
2018-12-26T17:46:37.365Z,4.55
2018-12-26T17:49:07.233Z,4.53
2018-12-26T17:51:36.811Z,4.53
2018-12-26T17:54:46.399Z,4.53
2018-12-26T18:01:12.886Z,4.56
2018-12-26T18:04:02.280Z,4.59
2018-12-26T18:06:32.128Z,4.58
2018-12-26T18:09:01.688Z,4.57
2018-12-26T18:11:51.448Z,4.55
2018-12-26T18:14:41.572Z,4.56
2018-12-26T18:17:11.131Z,4.60
2018-12-26T18:19:40.678Z,4.66
2018-12-26T18:22:10.597Z,4.66
2018-12-26T18:24:40.148Z,4.64
2018-12-26T18:27:09.713Z,4.68
2018-12-26T18:29:39.266Z,4.67
2018-12-26T18:32:10.458Z,4.70
2018-12-26T18:34:40.029Z,4.69
2018-12-26T18:37:09.661Z,4.67
2018-12-26T18:42:47.375Z,4.72
2018-12-26T18:45:17.261Z,4.71
2018-12-26T18:47:46.895Z,4.75
2018-12-26T18:50:16.459Z,4.77
2018-12-26T18:52:46.109Z,4.75
2018-12-26T18:55:15.768Z,4.75
2018-12-26T18:58:04.462Z,4.75
2018-12-26T19:00:34.055Z,4.75
2018-12-26T19:03:03.885Z,4.77
2018-12-26T19:05:33.773Z,4.78
2018-12-26T19:08:03.406Z,4.77
2018-12-26T19:10:32.957Z,4.78
2018-12-26T19:13:21.904Z,4.83
2018-12-26T19:15:51.786Z,4.86
2018-12-26T19:18:21.326Z,4.85
2018-12-26T19:20:50.960Z,4.90
2018-12-26T19:23:40.257Z,4.86
2018-12-26T19:26:11.440Z,4.84
2018-12-26T19:28:41.066Z,4.85
2018-12-26T19:31:10.678Z,4.85
2018-12-26T19:33:40.228Z,4.84
2018-12-26T19:36:10.144Z,4.84
2018-12-26T19:38:39.698Z,4.83
2018-12-26T19:41:09.581Z,4.87
2018-12-26T19:43:39.183Z,4.92
2018-12-26T19:46:08.739Z,4.92
2018-12-26T19:48:38.290Z,4.93
2018-12-26T19:51:07.847Z,4.94
2018-12-26T19:53:37.422Z,4.92
2018-12-26T19:56:07.323Z,4.93
2018-12-26T19:58:36.914Z,4.93
2018-12-26T20:04:00.403Z,4.95
2018-12-26T20:06:49.355Z,4.96
2018-12-26T20:09:18.970Z,4.97
2018-12-26T20:11:48.549Z,4.99
2018-12-26T20:14:18.233Z,5.00
2018-12-26T20:16:47.780Z,5.00
2018-12-26T20:19:17.328Z,5.03
2018-12-26T20:21:46.899Z,5.02
2018-12-26T20:24:16.450Z,4.98
2018-12-26T20:26:46.356Z,5.00
2018-12-26T20:29:15.912Z,4.98
2018-12-26T20:31:45.485Z,4.97
2018-12-26T20:34:15.034Z,4.97
2018-12-26T20:36:44.599Z,4.98
2018-12-26T20:39:14.487Z,5.00
2018-12-26T20:41:44.156Z,5.05
2018-12-26T20:44:13.681Z,5.05
2018-12-26T20:46:43.230Z,5.04
2018-12-26T20:49:12.872Z,5.02
2018-12-26T20:52:01.789Z,5.01
2018-12-26T20:54:31.353Z,5.02
2018-12-26T20:57:01.299Z,5.00
2018-12-26T20:59:30.928Z,5.03
2018-12-26T21:02:05.817Z,5.03
2018-12-26T21:04:52.769Z,5.04
2018-12-26T21:07:22.670Z,5.08
2018-12-26T21:09:52.221Z,5.01
2018-12-26T21:12:22.094Z,5.02
2018-12-26T21:14:51.926Z,5.01
2018-12-26T21:17:21.497Z,4.99
2018-12-26T21:19:51.344Z,4.96
2018-12-26T21:22:20.900Z,4.99
2018-12-26T21:24:50.456Z,5.05
2018-12-26T21:27:20.024Z,5.08
2018-12-26T21:30:49.015Z,5.13
2018-12-26T21:33:18.973Z,5.04
2018-12-26T21:35:49.002Z,5.01
2018-12-26T21:38:18.915Z,5.05
2018-12-26T21:40:48.474Z,5.02
2018-12-26T21:43:58.094Z,4.99
2018-12-26T21:46:27.651Z,4.97
2018-12-26T21:48:57.229Z,4.97
2018-12-26T21:51:27.103Z,5.00
2018-12-26T21:53:56.665Z,5.01
2018-12-26T21:56:26.222Z,4.98
2018-12-26T21:58:56.033Z,5.01
2018-12-26T22:01:25.600Z,5.00
2018-12-26T22:03:55.162Z,4.98
2018-12-26T22:06:24.992Z,4.99
2018-12-26T22:08:54.556Z,5.01
2018-12-26T22:11:24.294Z,4.99
2018-12-26T22:13:54.048Z,5.01
2018-12-26T22:16:23.913Z,5.03
2018-12-26T22:21:48.148Z,5.03
2018-12-26T22:24:37.125Z,5.06
2018-12-26T22:27:06.675Z,5.09
2018-12-26T22:29:36.240Z,5.11
2018-12-26T22:32:05.796Z,5.12
2018-12-26T22:34:35.660Z,5.15
2018-12-26T22:37:05.207Z,5.16
2018-12-26T22:39:34.778Z,5.15
2018-12-26T22:42:04.351Z,5.17
2018-12-26T22:44:53.264Z,5.14
2018-12-26T22:47:22.865Z,5.13
2018-12-26T22:49:52.431Z,5.14
2018-12-26T22:52:21.992Z,5.14
2018-12-26T22:54:51.573Z,5.13
2018-12-26T22:57:40.520Z,5.11
2018-12-26T23:00:50.149Z,5.14
2018-12-26T23:03:19.742Z,5.14
2018-12-26T23:08:37.741Z,5.19
2018-12-26T23:11:07.587Z,5.17
2018-12-26T23:13:37.149Z,5.17
2018-12-26T23:16:06.699Z,5.18
2018-12-26T23:18:36.280Z,5.18
2018-12-26T23:21:05.857Z,5.18
2018-12-26T23:23:54.787Z,5.21
2018-12-26T23:26:24.688Z,5.22
2018-12-26T23:28:54.248Z,5.20
2018-12-26T23:31:23.803Z,5.22
2018-12-26T23:33:53.406Z,5.18
2018-12-26T23:36:22.965Z,5.16
2018-12-26T23:38:52.529Z,5.18
2018-12-26T23:41:22.453Z,5.22
2018-12-26T23:43:52.286Z,5.22
2018-12-26T23:46:21.840Z,5.23
2018-12-26T23:48:51.798Z,5.23
2018-12-26T23:51:21.355Z,5.24
2018-12-26T23:53:50.913Z,5.25
2018-12-26T23:56:20.498Z,5.25
2018-12-26T23:58:50.076Z,5.24
